Ride Results

Kimberley Fire Brigade Challenge (05-05-2012)
Ride distance: 80.0 km

Outcomes - Kimberley Fire Brigade Challenge (05-05-2012)
Division No. of Entries Retired / DNE Completed Withdrawn Ineligible V/O Percentage Completed
HW 7 - 5 - - 2 71.43%
MW 25 - 24 - 1 - 96.00%
LW 9 - 8 1 - - 88.89%
JN 15 - 14 1 - - 93.33%
Totals 56 - 51 2 1 2 91.07%
Results - Kimberley Fire Brigade Challenge (05-05-2012)
No. Rider Horse Place Time Leg Speeds Total
Km/Hr
H/R bpm
Heavyweight
171 Craig Wall Sharabhan Sashmah 1 (BC) 4:35:00 21.2, 14.8 17.45 30, 47, 52 (Avg:49)
38 Tony Purton Beer Street Dimity 2 5:00:00 19.3, 13.6 16.00 38, 45, 46 (Avg:45)
156 Jared Pickering Glanheathyn Curio 3 5:53:00 18.0, 10.9 13.60 37, 51, 53 (Avg:52)
166 Craig Wilson Dial Range Saphira 4 7:31:04 11.7, 9.7 10.64 35, 43, 46 (Avg:44)
224 Matthew Haig Summer Breeze 5 7:31:08 12.1, 9.4 10.64 36, 41, 50 (Avg:45)
31 Trent Hardwicke Davlyn Park Maverick Lame L2 0:00:00 11.7, 9.7 - 46, 45, 57 (Avg:51)
199 Dennis Foley Jnr Brofour Wedgewood Heart Rate L1 0:00:00 17.3 - 38, 65 (Avg:65)
Middleweight
185 Dale Press Undurra Shimon 1 (BC) 4:08:00 21.2, 17.7 19.35 41, 45, 60 (Avg:52)
179 Debbie Grull DVS Barnaby 2 4:39:00 19.5, 15.3 17.20 35, 47, 53 (Avg:50)
136 Kaye Mitchell Beer Street Bluewitch 3 5:00:00 19.0, 13.7 16.00 30, 41, 45 (Avg:43)
99 Heather Johnson Black Heart Dashar 4 5:07:00 18.0, 13.7 15.64 36, 44, 51 (Avg:47)
250 Kaleb Smith Beaucheval Akhiran 5 5:21:00 17.3, 13.1 14.95 35, 49, 57 (Avg:53)
30 Karyn Holden Ibn Zubair 6 5:53:00 15.9, 11.8 13.60 35, 44, 55 (Avg:49)
92 Blaine Astell Cameo Izaiah 7 5:57:00 14.9, 12.1 13.45 33, 46, 52 (Avg:49)
88 Anthony Bloom Kerribea 8 6:20:00 15.1, 10.8 12.63 46, 48, 51 (Avg:49)
246 Heather Hampson Costa Zu 9 6:20:01 15.0, 10.8 12.63 38, 50, 59 (Avg:54)
83 Angie Clark Undurra Braveheart 10 6:21:00 13.9, 11.4 12.60 31, 46, 45 (Avg:45)
143 Pauline Goodwin Marley Hosanna 11 6:34:00 14.5, 10.4 12.18 36, 39, 49 (Avg:44)
212 Jan Lewin Dot Com R.U. One Two 11 6:34:00 14.5, 10.4 12.18 34, 40, 47 (Avg:43)
101 Wendy Rand Shayelle Memphis 13 6:35:00 12.6, 11.6 12.15 33, 37, 45 (Avg:41)
142 Shayne Williams Shayelle Chocolate 13 6:35:00 12.6, 11.6 12.15 38, 41, 46 (Avg:43)
266 Sarah Wells Performance Park Riverdance 15 6:39:00 13.1, 11.1 12.03 33, 49, 55 (Avg:52)
268 Matthew Vernon Saffa 16 6:57:00 12.1, 10.9 11.51 46, 0, 54 (Avg:27)
204 Casey Hayes Bellawongarah Morgan 17 7:07:00 11.7, 10.7 11.24 35, 41, 48 (Avg:44)
3 Brenda Hardwicke Cassata Royale 18 7:09:00 13.1, 9.7 11.19 41, 44, 50 (Avg:47)
232 Angela Gatti Bellatrix Lodge Sahriaal 19 7:31:00 11.7, 9.7 10.64 42, 45, 54 (Avg:49)
96 Anita Johnson Mulawa Wisdom 19 7:31:00 12.1, 9.4 10.64 35, 47, 50 (Avg:48)
181a Brenda Blucher Coolawanya Estasharr 21 7:36:00 12.1, 9.3 10.53 38, 44, 59 (Avg:51)
165 Fletch Fletcher Colt 45 - The Gun 22 7:52:00 11.0, 9.4 10.17 46, 45, 55 (Avg:50)
76 Karin Morris Rivergum Skye 23 8:06:00 10.8, 9.0 9.88 36, 40, 45 (Avg:42)
124 Robyn Nibbs Beer Street Reuben 23 8:06:00 10.8, 9.0 9.88 39, 42, 47 (Avg:44)
119 Max Lockhart Vandiemen Cheeky Disqualified L2 0:00:00 19.5, 13.9 - 36, 46, 64 (Avg:55)
Lightweight
100 Trish Smith Khayem Requisite 1 (BC) 6:16:00 14.5, 11.3 12.77 39, 53, 53 (Avg:53)
20 Jodi Smith Cedar Ridge Trojan 2 6:21:00 13.1, 12.0 12.60 48, 50, 57 (Avg:53)
148 Jeremy Robertson Larabi Bint Fantasy 3 6:34:00 12.1, 12.1 12.18 29, 38, 46 (Avg:42)
259 Judi Leale Sheikh 4 6:57:00 12.1, 10.9 11.51 39, 51, 49 (Avg:50)
60 Jill Lowth Orabanda Dancing Silhouette 5 7:31:00 12.1, 9.4 10.64 39, 47, 52 (Avg:49)
6 Christine King Sir Andrew of Seven Oaks 6 7:46:00 11.3, 9.4 10.30 40, 42, 49 (Avg:45)
37 Jen Clingly Diamond Tail Desert Opal 7 7:52:00 11.0, 9.4 10.17 40, 40, 53 (Avg:46)
146 Brooke McKenna Tarrangaw Lonestar 8 8:09:00 10.8, 8.9 9.82 34, 44, 58 (Avg:51)
19 Sonia Hodgetts Splitters Creek Cypress Withdrawn L1 0:00:00 - - 31, 43 (Avg:43)
Junior
190 Alice Mitchell Beer Street Takone 1 (BC) 5:07:00 18.1, 13.7 15.64 33, 45, 43 (Avg:44)
135 Breaana Smith Sandine Ibn Makado 2 5:53:00 15.9, 11.8 13.60 30, 41, 41 (Avg:41)
258 Jade Clark Harmere Burkhan 3 6:21:00 13.9, 11.4 12.60 29, 42, 49 (Avg:45)
226 Hayley Marshall Rowallan Aspin 4 6:34:00 12.1, 12.1 12.18 38, 45, 47 (Avg:46)
47 Hannah Colbeck Summit Park Asset 5 6:48:00 12.1, 11.3 11.76 31, 44, 52 (Avg:48)
74 Felicity Perry Dream Catcher Te 5 6:48:00 12.1, 11.3 11.76 30, 38, 51 (Avg:44)
209 Grace Huxtable Kaywana Mystique 7 7:02:00 11.8, 10.9 11.37 40, 45, 53 (Avg:49)
29 Danielle Taylor Highland View Barbara 7 7:02:00 11.8, 10.9 11.37 40, 43, 46 (Avg:44)
237 Khalan Ford Highland View Piper 9 7:07:00 11.7, 10.7 11.24 40, 44, 47 (Avg:45)
150 Emily Shadbolt Tanbark Jasper 10 7:31:05 11.7, 9.7 10.64 36, 45, 49 (Avg:47)
196 Ellie Maddick Armidale Flash Jack 11 7:46:00 11.3, 9.4 10.30 30, 42, 58 (Avg:50)
125 Brooke Brown-Cordell Kaban 12 8:06:03 11.2, 8.8 9.88 30, 42, 43 (Avg:42)
154 Sarah Parker King Park Aberdeen Pelion 13 8:06:04 11.2, 8.8 9.88 30, 42, 48 (Avg:45)
264 Bronte Page DJ Afro Jack 14 8:09:00 10.8, 8.9 9.82 38, 49, 52 (Avg:50)
249 Corey Foley Highland View Kelandi Withdrawn L1 0:00:00 - - 26, 42 (Avg:42)